sensor_id;sensor_type;location;lat;lon;timestamp;P1;durP1;ratioP1;P2;durP2;ratioP2
14306;SDS011;7237;49.500;11.400;2023-02-19T00:02:13;7.63;;;4.60;;
14306;SDS011;7237;49.500;11.400;2023-02-19T00:04:40;5.43;;;3.83;;
14306;SDS011;7237;49.500;11.400;2023-02-19T00:07:09;4.43;;;4.03;;
14306;SDS011;7237;49.500;11.400;2023-02-19T00:09:36;4.30;;;3.90;;
14306;SDS011;7237;49.500;11.400;2023-02-19T00:12:03;4.63;;;4.23;;
14306;SDS011;7237;49.500;11.400;2023-02-19T00:14:30;5.20;;;4.60;;
14306;SDS011;7237;49.500;11.400;2023-02-19T00:16:57;4.13;;;3.73;;
14306;SDS011;7237;49.500;11.400;2023-02-19T00:19:24;4.23;;;3.93;;
14306;SDS011;7237;49.500;11.400;2023-02-19T00:21:51;4.57;;;4.17;;
14306;SDS011;7237;49.500;11.400;2023-02-19T00:24:20;3.93;;;3.63;;
14306;SDS011;7237;49.500;11.400;2023-02-19T00:26:47;4.27;;;3.97;;
14306;SDS011;7237;49.500;11.400;2023-02-19T00:29:15;3.77;;;3.47;;
14306;SDS011;7237;49.500;11.400;2023-02-19T00:31:43;4.33;;;3.83;;
14306;SDS011;7237;49.500;11.400;2023-02-19T00:34:11;4.00;;;3.70;;
14306;SDS011;7237;49.500;11.400;2023-02-19T00:36:39;4.03;;;3.50;;
14306;SDS011;7237;49.500;11.400;2023-02-19T00:39:06;3.70;;;3.40;;
14306;SDS011;7237;49.500;11.400;2023-02-19T00:41:35;3.43;;;3.20;;
14306;SDS011;7237;49.500;11.400;2023-02-19T00:44:03;3.47;;;3.17;;
14306;SDS011;7237;49.500;11.400;2023-02-19T00:46:31;3.30;;;3.10;;
14306;SDS011;7237;49.500;11.400;2023-02-19T00:48:58;3.10;;;2.90;;
14306;SDS011;7237;49.500;11.400;2023-02-19T00:51:26;3.00;;;2.70;;
14306;SDS011;7237;49.500;11.400;2023-02-19T00:53:54;3.30;;;3.00;;
14306;SDS011;7237;49.500;11.400;2023-02-19T00:56:21;2.90;;;2.70;;
14306;SDS011;7237;49.500;11.400;2023-02-19T00:58:49;3.30;;;3.00;;
14306;SDS011;7237;49.500;11.400;2023-02-19T01:01:17;3.20;;;3.00;;
14306;SDS011;7237;49.500;11.400;2023-02-19T01:03:44;3.27;;;2.97;;
14306;SDS011;7237;49.500;11.400;2023-02-19T01:06:13;3.07;;;2.87;;
14306;SDS011;7237;49.500;11.400;2023-02-19T01:08:40;3.67;;;3.37;;
14306;SDS011;7237;49.500;11.400;2023-02-19T01:11:07;3.00;;;2.80;;
14306;SDS011;7237;49.500;11.400;2023-02-19T01:13:35;2.90;;;2.70;;
14306;SDS011;7237;49.500;11.400;2023-02-19T01:16:04;2.83;;;2.63;;
14306;SDS011;7237;49.500;11.400;2023-02-19T01:18:32;3.23;;;3.00;;
14306;SDS011;7237;49.500;11.400;2023-02-19T01:20:59;3.63;;;3.33;;
14306;SDS011;7237;49.500;11.400;2023-02-19T01:23:31;3.10;;;2.90;;
14306;SDS011;7237;49.500;11.400;2023-02-19T01:25:58;3.57;;;3.27;;
14306;SDS011;7237;49.500;11.400;2023-02-19T01:28:25;3.20;;;2.90;;
14306;SDS011;7237;49.500;11.400;2023-02-19T01:30:52;3.40;;;3.20;;
14306;SDS011;7237;49.500;11.400;2023-02-19T01:33:20;3.53;;;3.33;;
14306;SDS011;7237;49.500;11.400;2023-02-19T01:35:47;3.80;;;3.50;;
14306;SDS011;7237;49.500;11.400;2023-02-19T01:38:14;3.37;;;3.17;;
14306;SDS011;7237;49.500;11.400;2023-02-19T01:40:41;3.70;;;3.40;;
14306;SDS011;7237;49.500;11.400;2023-02-19T01:43:10;3.50;;;3.30;;
14306;SDS011;7237;49.500;11.400;2023-02-19T01:45:41;3.80;;;3.50;;
14306;SDS011;7237;49.500;11.400;2023-02-19T01:48:09;4.00;;;3.63;;
14306;SDS011;7237;49.500;11.400;2023-02-19T01:50:40;4.17;;;3.87;;
14306;SDS011;7237;49.500;11.400;2023-02-19T01:53:09;4.00;;;3.70;;
14306;SDS011;7237;49.500;11.400;2023-02-19T01:55:37;4.00;;;3.70;;
14306;SDS011;7237;49.500;11.400;2023-02-19T01:58:04;4.50;;;4.20;;
14306;SDS011;7237;49.500;11.400;2023-02-19T02:00:32;4.37;;;4.00;;
14306;SDS011;7237;49.500;11.400;2023-02-19T02:02:59;4.17;;;3.87;;
14306;SDS011;7237;49.500;11.400;2023-02-19T02:05:30;4.23;;;3.93;;
14306;SDS011;7237;49.500;11.400;2023-02-19T02:08:00;4.47;;;4.17;;
14306;SDS011;7237;49.500;11.400;2023-02-19T02:10:45;4.37;;;4.07;;
14306;SDS011;7237;49.500;11.400;2023-02-19T02:13:13;4.57;;;4.27;;
14306;SDS011;7237;49.500;11.400;2023-02-19T02:15:42;4.87;;;4.47;;
14306;SDS011;7237;49.500;11.400;2023-02-19T02:18:13;4.47;;;4.17;;
14306;SDS011;7237;49.500;11.400;2023-02-19T02:20:48;4.70;;;4.37;;
14306;SDS011;7237;49.500;11.400;2023-02-19T02:23:21;4.37;;;4.07;;
14306;SDS011;7237;49.500;11.400;2023-02-19T02:25:55;4.37;;;4.07;;
14306;SDS011;7237;49.500;11.400;2023-02-19T02:28:35;4.43;;;4.00;;
14306;SDS011;7237;49.500;11.400;2023-02-19T02:31:09;4.77;;;4.37;;
14306;SDS011;7237;49.500;11.400;2023-02-19T02:33:40;4.37;;;4.03;;
14306;SDS011;7237;49.500;11.400;2023-02-19T02:36:09;4.47;;;4.10;;
14306;SDS011;7237;49.500;11.400;2023-02-19T02:38:38;4.13;;;3.83;;
14306;SDS011;7237;49.500;11.400;2023-02-19T02:41:06;4.63;;;4.33;;
14306;SDS011;7237;49.500;11.400;2023-02-19T02:43:34;4.73;;;4.33;;
14306;SDS011;7237;49.500;11.400;2023-02-19T02:46:01;4.77;;;4.37;;
14306;SDS011;7237;49.500;11.400;2023-02-19T02:48:33;4.40;;;4.10;;
14306;SDS011;7237;49.500;11.400;2023-02-19T02:51:04;4.37;;;4.00;;
14306;SDS011;7237;49.500;11.400;2023-02-19T02:53:33;4.80;;;4.40;;
14306;SDS011;7237;49.500;11.400;2023-02-19T02:56:19;5.00;;;4.60;;
14306;SDS011;7237;49.500;11.400;2023-02-19T02:58:46;4.73;;;4.23;;
14306;SDS011;7237;49.500;11.400;2023-02-19T03:01:16;4.60;;;4.30;;
14306;SDS011;7237;49.500;11.400;2023-02-19T03:04:04;5.07;;;4.67;;
14306;SDS011;7237;49.500;11.400;2023-02-19T03:06:32;4.50;;;4.20;;
14306;SDS011;7237;49.500;11.400;2023-02-19T03:09:01;4.60;;;4.17;;
14306;SDS011;7237;49.500;11.400;2023-02-19T03:11:30;4.37;;;3.97;;
14306;SDS011;7237;49.500;11.400;2023-02-19T03:14:17;4.53;;;4.13;;
14306;SDS011;7237;49.500;11.400;2023-02-19T03:17:05;4.30;;;4.00;;
14306;SDS011;7237;49.500;11.400;2023-02-19T03:19:54;4.63;;;4.23;;
14306;SDS011;7237;49.500;11.400;2023-02-19T03:22:22;4.93;;;4.30;;
14306;SDS011;7237;49.500;11.400;2023-02-19T03:24:51;4.27;;;3.90;;
14306;SDS011;7237;49.500;11.400;2023-02-19T03:27:38;4.40;;;4.10;;
14306;SDS011;7237;49.500;11.400;2023-02-19T03:30:07;4.30;;;4.00;;
14306;SDS011;7237;49.500;11.400;2023-02-19T03:32:35;4.10;;;3.80;;
14306;SDS011;7237;49.500;11.400;2023-02-19T03:35:08;4.30;;;3.70;;
14306;SDS011;7237;49.500;11.400;2023-02-19T03:37:36;4.20;;;3.87;;
14306;SDS011;7237;49.500;11.400;2023-02-19T03:40:04;3.63;;;3.40;;
14306;SDS011;7237;49.500;11.400;2023-02-19T03:42:34;3.50;;;3.30;;
14306;SDS011;7237;49.500;11.400;2023-02-19T03:45:09;3.67;;;3.37;;
14306;SDS011;7237;49.500;11.400;2023-02-19T03:47:40;3.87;;;3.57;;
14306;SDS011;7237;49.500;11.400;2023-02-19T03:50:12;3.53;;;3.33;;
14306;SDS011;7237;49.500;11.400;2023-02-19T03:52:44;3.47;;;3.17;;
14306;SDS011;7237;49.500;11.400;2023-02-19T03:55:14;3.43;;;3.13;;
14306;SDS011;7237;49.500;11.400;2023-02-19T03:57:44;3.70;;;3.40;;
14306;SDS011;7237;49.500;11.400;2023-02-19T04:00:14;3.30;;;3.10;;
14306;SDS011;7237;49.500;11.400;2023-02-19T04:02:43;3.50;;;3.30;;
14306;SDS011;7237;49.500;11.400;2023-02-19T04:05:15;3.50;;;3.20;;
14306;SDS011;7237;49.500;11.400;2023-02-19T04:07:43;3.47;;;3.27;;
14306;SDS011;7237;49.500;11.400;2023-02-19T04:10:11;3.37;;;3.17;;
14306;SDS011;7237;49.500;11.400;2023-02-19T04:12:39;3.63;;;3.33;;
14306;SDS011;7237;49.500;11.400;2023-02-19T04:15:09;3.23;;;3.03;;
14306;SDS011;7237;49.500;11.400;2023-02-19T04:17:37;3.10;;;2.90;;
14306;SDS011;7237;49.500;11.400;2023-02-19T04:20:07;3.40;;;3.10;;
14306;SDS011;7237;49.500;11.400;2023-02-19T04:22:36;3.50;;;3.20;;
14306;SDS011;7237;49.500;11.400;2023-02-19T04:25:04;3.10;;;2.90;;
14306;SDS011;7237;49.500;11.400;2023-02-19T04:27:31;3.13;;;2.83;;
14306;SDS011;7237;49.500;11.400;2023-02-19T04:29:58;3.50;;;3.20;;
14306;SDS011;7237;49.500;11.400;2023-02-19T04:32:25;3.10;;;2.90;;
14306;SDS011;7237;49.500;11.400;2023-02-19T04:34:52;3.40;;;3.10;;
14306;SDS011;7237;49.500;11.400;2023-02-19T04:37:19;3.40;;;3.10;;
14306;SDS011;7237;49.500;11.400;2023-02-19T04:39:48;2.97;;;2.77;;
14306;SDS011;7237;49.500;11.400;2023-02-19T04:42:15;3.50;;;3.20;;
14306;SDS011;7237;49.500;11.400;2023-02-19T04:44:42;3.10;;;2.90;;
14306;SDS011;7237;49.500;11.400;2023-02-19T04:47:09;3.00;;;2.80;;
14306;SDS011;7237;49.500;11.400;2023-02-19T04:49:36;3.27;;;3.07;;
14306;SDS011;7237;49.500;11.400;2023-02-19T04:52:03;2.90;;;2.70;;
14306;SDS011;7237;49.500;11.400;2023-02-19T04:54:30;2.90;;;2.70;;
14306;SDS011;7237;49.500;11.400;2023-02-19T04:56:58;2.90;;;2.70;;
14306;SDS011;7237;49.500;11.400;2023-02-19T04:59:26;2.80;;;2.60;;
14306;SDS011;7237;49.500;11.400;2023-02-19T05:01:53;2.80;;;2.60;;
14306;SDS011;7237;49.500;11.400;2023-02-19T05:04:21;2.63;;;2.43;;
14306;SDS011;7237;49.500;11.400;2023-02-19T05:06:48;2.40;;;2.30;;
14306;SDS011;7237;49.500;11.400;2023-02-19T05:09:15;2.47;;;2.27;;
14306;SDS011;7237;49.500;11.400;2023-02-19T05:11:42;2.60;;;2.47;;
14306;SDS011;7237;49.500;11.400;2023-02-19T05:14:11;2.67;;;2.47;;
14306;SDS011;7237;49.500;11.400;2023-02-19T05:16:38;2.60;;;2.40;;
14306;SDS011;7237;49.500;11.400;2023-02-19T05:19:05;2.60;;;2.40;;
14306;SDS011;7237;49.500;11.400;2023-02-19T05:21:32;2.70;;;2.50;;
14306;SDS011;7237;49.500;11.400;2023-02-19T05:23:59;3.73;;;2.50;;
14306;SDS011;7237;49.500;11.400;2023-02-19T05:26:26;2.60;;;2.40;;
14306;SDS011;7237;49.500;11.400;2023-02-19T05:28:55;2.60;;;2.40;;
14306;SDS011;7237;49.500;11.400;2023-02-19T05:31:23;2.77;;;2.57;;
14306;SDS011;7237;49.500;11.400;2023-02-19T05:33:50;2.43;;;2.23;;
14306;SDS011;7237;49.500;11.400;2023-02-19T05:36:18;2.70;;;2.50;;
14306;SDS011;7237;49.500;11.400;2023-02-19T05:38:45;2.30;;;2.10;;
14306;SDS011;7237;49.500;11.400;2023-02-19T05:41:13;2.63;;;2.43;;
14306;SDS011;7237;49.500;11.400;2023-02-19T05:43:41;2.30;;;2.20;;
14306;SDS011;7237;49.500;11.400;2023-02-19T05:46:09;2.50;;;2.30;;
14306;SDS011;7237;49.500;11.400;2023-02-19T05:48:37;2.17;;;2.07;;
14306;SDS011;7237;49.500;11.400;2023-02-19T05:51:05;2.10;;;2.00;;
14306;SDS011;7237;49.500;11.400;2023-02-19T05:53:33;2.30;;;2.17;;
14306;SDS011;7237;49.500;11.400;2023-02-19T05:56:00;2.13;;;2.03;;
14306;SDS011;7237;49.500;11.400;2023-02-19T05:58:28;1.90;;;1.80;;
14306;SDS011;7237;49.500;11.400;2023-02-19T06:00:55;1.87;;;1.77;;
14306;SDS011;7237;49.500;11.400;2023-02-19T06:03:22;2.27;;;1.70;;
14306;SDS011;7237;49.500;11.400;2023-02-19T06:05:50;1.80;;;1.70;;
14306;SDS011;7237;49.500;11.400;2023-02-19T06:08:17;1.73;;;1.63;;
14306;SDS011;7237;49.500;11.400;2023-02-19T06:10:44;1.70;;;1.60;;
14306;SDS011;7237;49.500;11.400;2023-02-19T06:13:11;1.90;;;1.80;;
14306;SDS011;7237;49.500;11.400;2023-02-19T06:15:38;1.70;;;1.60;;
14306;SDS011;7237;49.500;11.400;2023-02-19T06:18:05;1.70;;;1.60;;
14306;SDS011;7237;49.500;11.400;2023-02-19T06:20:33;1.80;;;1.70;;
14306;SDS011;7237;49.500;11.400;2023-02-19T06:23:01;1.80;;;1.70;;
14306;SDS011;7237;49.500;11.400;2023-02-19T06:25:28;1.80;;;1.70;;
14306;SDS011;7237;49.500;11.400;2023-02-19T06:27:55;1.50;;;1.50;;
14306;SDS011;7237;49.500;11.400;2023-02-19T06:30:23;1.83;;;1.73;;
14306;SDS011;7237;49.500;11.400;2023-02-19T06:32:50;1.60;;;1.50;;
14306;SDS011;7237;49.500;11.400;2023-02-19T06:35:18;1.70;;;1.60;;
14306;SDS011;7237;49.500;11.400;2023-02-19T06:37:45;1.47;;;1.37;;
14306;SDS011;7237;49.500;11.400;2023-02-19T06:40:14;1.57;;;1.47;;
14306;SDS011;7237;49.500;11.400;2023-02-19T06:42:41;1.60;;;1.50;;
14306;SDS011;7237;49.500;11.400;2023-02-19T06:45:08;1.73;;;1.63;;
14306;SDS011;7237;49.500;11.400;2023-02-19T06:47:35;1.50;;;1.40;;
14306;SDS011;7237;49.500;11.400;2023-02-19T06:50:02;1.53;;;1.43;;
14306;SDS011;7237;49.500;11.400;2023-02-19T06:52:29;1.50;;;1.40;;
14306;SDS011;7237;49.500;11.400;2023-02-19T06:54:56;1.60;;;1.50;;
14306;SDS011;7237;49.500;11.400;2023-02-19T06:57:25;1.37;;;1.37;;
14306;SDS011;7237;49.500;11.400;2023-02-19T06:59:52;1.20;;;1.20;;
14306;SDS011;7237;49.500;11.400;2023-02-19T07:02:19;1.80;;;1.70;;
14306;SDS011;7237;49.500;11.400;2023-02-19T07:04:46;2.17;;;1.70;;
14306;SDS011;7237;49.500;11.400;2023-02-19T07:07:13;1.60;;;1.50;;
14306;SDS011;7237;49.500;11.400;2023-02-19T07:09:40;1.50;;;1.40;;
14306;SDS011;7237;49.500;11.400;2023-02-19T07:12:07;1.60;;;1.50;;
14306;SDS011;7237;49.500;11.400;2023-02-19T07:14:35;1.70;;;1.60;;
14306;SDS011;7237;49.500;11.400;2023-02-19T07:17:02;2.83;;;1.80;;
14306;SDS011;7237;49.500;11.400;2023-02-19T07:19:29;2.13;;;1.77;;
14306;SDS011;7237;49.500;11.400;2023-02-19T07:21:56;1.43;;;1.33;;
14306;SDS011;7237;49.500;11.400;2023-02-19T07:24:23;1.60;;;1.50;;
14306;SDS011;7237;49.500;11.400;2023-02-19T07:26:50;1.57;;;1.47;;
14306;SDS011;7237;49.500;11.400;2023-02-19T07:29:17;2.00;;;1.80;;
14306;SDS011;7237;49.500;11.400;2023-02-19T07:31:46;1.87;;;1.77;;
14306;SDS011;7237;49.500;11.400;2023-02-19T07:34:13;1.30;;;1.10;;
14306;SDS011;7237;49.500;11.400;2023-02-19T07:36:40;1.47;;;1.33;;
14306;SDS011;7237;49.500;11.400;2023-02-19T07:39:09;1.60;;;1.50;;
14306;SDS011;7237;49.500;11.400;2023-02-19T07:41:37;2.13;;;1.93;;
14306;SDS011;7237;49.500;11.400;2023-02-19T07:44:04;1.83;;;1.73;;
14306;SDS011;7237;49.500;11.400;2023-02-19T07:46:31;1.43;;;1.33;;
14306;SDS011;7237;49.500;11.400;2023-02-19T07:49:00;1.37;;;1.27;;
14306;SDS011;7237;49.500;11.400;2023-02-19T07:51:27;2.57;;;1.63;;
14306;SDS011;7237;49.500;11.400;2023-02-19T07:53:54;1.87;;;1.77;;
14306;SDS011;7237;49.500;11.400;2023-02-19T07:56:21;2.40;;;2.20;;
14306;SDS011;7237;49.500;11.400;2023-02-19T07:58:48;1.60;;;1.50;;
14306;SDS011;7237;49.500;11.400;2023-02-19T08:01:15;1.90;;;1.70;;
14306;SDS011;7237;49.500;11.400;2023-02-19T08:03:43;2.97;;;1.80;;
14306;SDS011;7237;49.500;11.400;2023-02-19T08:06:10;1.50;;;1.40;;
14306;SDS011;7237;49.500;11.400;2023-02-19T08:08:38;1.80;;;1.70;;
14306;SDS011;7237;49.500;11.400;2023-02-19T08:11:05;1.30;;;1.20;;
14306;SDS011;7237;49.500;11.400;2023-02-19T08:13:50;1.93;;;1.73;;
14306;SDS011;7237;49.500;11.400;2023-02-19T08:16:18;1.60;;;1.50;;
14306;SDS011;7237;49.500;11.400;2023-02-19T08:18:45;1.33;;;1.23;;
14306;SDS011;7237;49.500;11.400;2023-02-19T08:21:14;1.33;;;1.20;;
14306;SDS011;7237;49.500;11.400;2023-02-19T08:23:43;1.30;;;1.20;;
14306;SDS011;7237;49.500;11.400;2023-02-19T08:26:11;1.77;;;1.63;;
14306;SDS011;7237;49.500;11.400;2023-02-19T08:28:38;1.53;;;1.37;;
14306;SDS011;7237;49.500;11.400;2023-02-19T08:31:06;1.60;;;1.50;;
14306;SDS011;7237;49.500;11.400;2023-02-19T08:33:33;1.67;;;1.50;;
14306;SDS011;7237;49.500;11.400;2023-02-19T08:36:01;2.93;;;1.57;;
14306;SDS011;7237;49.500;11.400;2023-02-19T08:38:30;2.73;;;1.90;;
14306;SDS011;7237;49.500;11.400;2023-02-19T08:41:02;1.53;;;1.43;;
14306;SDS011;7237;49.500;11.400;2023-02-19T08:43:29;1.30;;;1.30;;
14306;SDS011;7237;49.500;11.400;2023-02-19T08:45:56;1.43;;;1.30;;
14306;SDS011;7237;49.500;11.400;2023-02-19T08:48:23;1.87;;;1.57;;
14306;SDS011;7237;49.500;11.400;2023-02-19T08:50:53;1.60;;;1.50;;
14306;SDS011;7237;49.500;11.400;2023-02-19T08:53:21;1.63;;;1.43;;
14306;SDS011;7237;49.500;11.400;2023-02-19T08:55:50;1.10;;;1.10;;
14306;SDS011;7237;49.500;11.400;2023-02-19T08:58:17;2.43;;;1.53;;
14306;SDS011;7237;49.500;11.400;2023-02-19T09:00:44;1.43;;;1.33;;
14306;SDS011;7237;49.500;11.400;2023-02-19T09:03:11;1.30;;;1.20;;
14306;SDS011;7237;49.500;11.400;2023-02-19T09:05:38;1.73;;;1.50;;
14306;SDS011;7237;49.500;11.400;2023-02-19T09:08:06;1.77;;;1.33;;
14306;SDS011;7237;49.500;11.400;2023-02-19T09:10:33;1.63;;;1.53;;
14306;SDS011;7237;49.500;11.400;2023-02-19T09:13:01;1.27;;;1.17;;
14306;SDS011;7237;49.500;11.400;2023-02-19T09:15:28;1.40;;;1.30;;
14306;SDS011;7237;49.500;11.400;2023-02-19T09:17:56;1.20;;;1.10;;
14306;SDS011;7237;49.500;11.400;2023-02-19T09:20:23;2.40;;;1.40;;
14306;SDS011;7237;49.500;11.400;2023-02-19T09:22:55;1.00;;;1.00;;
14306;SDS011;7237;49.500;11.400;2023-02-19T09:25:22;1.10;;;1.10;;
14306;SDS011;7237;49.500;11.400;2023-02-19T09:27:52;0.97;;;0.80;;
14306;SDS011;7237;49.500;11.400;2023-02-19T09:30:21;1.07;;;1.03;;
14306;SDS011;7237;49.500;11.400;2023-02-19T09:32:48;1.30;;;1.20;;
14306;SDS011;7237;49.500;11.400;2023-02-19T09:35:15;1.23;;;1.13;;
14306;SDS011;7237;49.500;11.400;2023-02-19T09:37:43;1.30;;;1.20;;
14306;SDS011;7237;49.500;11.400;2023-02-19T09:40:10;1.53;;;1.43;;
14306;SDS011;7237;49.500;11.400;2023-02-19T09:42:38;0.90;;;0.90;;
14306;SDS011;7237;49.500;11.400;2023-02-19T09:45:06;1.40;;;1.30;;
14306;SDS011;7237;49.500;11.400;2023-02-19T09:47:34;1.90;;;1.27;;
14306;SDS011;7237;49.500;11.400;2023-02-19T09:50:04;1.67;;;1.30;;
14306;SDS011;7237;49.500;11.400;2023-02-19T09:52:33;2.33;;;1.63;;
14306;SDS011;7237;49.500;11.400;2023-02-19T09:55:03;2.57;;;1.20;;
14306;SDS011;7237;49.500;11.400;2023-02-19T09:57:31;1.10;;;1.10;;
14306;SDS011;7237;49.500;11.400;2023-02-19T10:00:03;1.77;;;1.67;;
14306;SDS011;7237;49.500;11.400;2023-02-19T10:02:30;1.53;;;1.30;;
14306;SDS011;7237;49.500;11.400;2023-02-19T10:04:59;1.67;;;1.17;;
14306;SDS011;7237;49.500;11.400;2023-02-19T10:07:29;1.60;;;1.50;;
14306;SDS011;7237;49.500;11.400;2023-02-19T10:09:59;3.17;;;1.70;;
14306;SDS011;7237;49.500;11.400;2023-02-19T10:12:28;2.20;;;1.70;;
14306;SDS011;7237;49.500;11.400;2023-02-19T10:14:56;1.80;;;1.40;;
14306;SDS011;7237;49.500;11.400;2023-02-19T10:17:26;1.47;;;1.30;;
14306;SDS011;7237;49.500;11.400;2023-02-19T10:19:53;2.07;;;1.70;;
14306;SDS011;7237;49.500;11.400;2023-02-19T10:22:21;1.90;;;1.50;;
14306;SDS011;7237;49.500;11.400;2023-02-19T10:24:49;2.63;;;1.37;;
14306;SDS011;7237;49.500;11.400;2023-02-19T10:27:17;1.77;;;1.40;;
14306;SDS011;7237;49.500;11.400;2023-02-19T10:29:45;1.20;;;1.10;;
14306;SDS011;7237;49.500;11.400;2023-02-19T10:32:13;2.30;;;1.40;;
14306;SDS011;7237;49.500;11.400;2023-02-19T10:34:42;1.33;;;1.23;;
14306;SDS011;7237;49.500;11.400;2023-02-19T10:37:10;2.07;;;1.83;;
14306;SDS011;7237;49.500;11.400;2023-02-19T10:39:41;6.73;;;4.10;;
14306;SDS011;7237;49.500;11.400;2023-02-19T10:42:13;3.50;;;3.20;;
14306;SDS011;7237;49.500;11.400;2023-02-19T10:44:41;2.47;;;2.10;;
14306;SDS011;7237;49.500;11.400;2023-02-19T10:47:08;2.60;;;1.77;;
14306;SDS011;7237;49.500;11.400;2023-02-19T10:49:41;5.87;;;4.00;;
14306;SDS011;7237;49.500;11.400;2023-02-19T10:52:11;17.73;;;11.27;;
14306;SDS011;7237;49.500;11.400;2023-02-19T10:54:43;9.00;;;5.60;;
14306;SDS011;7237;49.500;11.400;2023-02-19T10:57:29;5.53;;;4.53;;
14306;SDS011;7237;49.500;11.400;2023-02-19T10:59:57;3.13;;;2.30;;
14306;SDS011;7237;49.500;11.400;2023-02-19T11:02:26;4.10;;;3.20;;
14306;SDS011;7237;49.500;11.400;2023-02-19T11:05:05;14.80;;;10.20;;
14306;SDS011;7237;49.500;11.400;2023-02-19T11:07:32;8.13;;;5.47;;
14306;SDS011;7237;49.500;11.400;2023-02-19T11:10:01;18.90;;;12.13;;
14306;SDS011;7237;49.500;11.400;2023-02-19T11:12:29;23.43;;;15.20;;
14306;SDS011;7237;49.500;11.400;2023-02-19T11:14:57;24.30;;;15.33;;
14306;SDS011;7237;49.500;11.400;2023-02-19T11:17:27;21.10;;;14.30;;
14306;SDS011;7237;49.500;11.400;2023-02-19T11:19:55;3.00;;;2.50;;
14306;SDS011;7237;49.500;11.400;2023-02-19T11:22:28;7.93;;;5.50;;
14306;SDS011;7237;49.500;11.400;2023-02-19T11:24:55;12.13;;;7.13;;
14306;SDS011;7237;49.500;11.400;2023-02-19T11:27:25;17.03;;;9.30;;
14306;SDS011;7237;49.500;11.400;2023-02-19T11:29:52;16.90;;;9.93;;
14306;SDS011;7237;49.500;11.400;2023-02-19T11:32:23;6.77;;;4.93;;
14306;SDS011;7237;49.500;11.400;2023-02-19T11:34:51;2.20;;;2.00;;
14306;SDS011;7237;49.500;11.400;2023-02-19T11:37:19;2.03;;;1.83;;
14306;SDS011;7237;49.500;11.400;2023-02-19T11:39:46;1.80;;;1.70;;
14306;SDS011;7237;49.500;11.400;2023-02-19T11:42:17;2.10;;;1.77;;
14306;SDS011;7237;49.500;11.400;2023-02-19T11:44:54;3.63;;;2.00;;
14306;SDS011;7237;49.500;11.400;2023-02-19T11:50:14;2.70;;;1.60;;
14306;SDS011;7237;49.500;11.400;2023-02-19T11:52:45;1.87;;;1.60;;
14306;SDS011;7237;49.500;11.400;2023-02-19T11:55:17;2.67;;;1.83;;
14306;SDS011;7237;49.500;11.400;2023-02-19T11:57:47;1.73;;;1.63;;
14306;SDS011;7237;49.500;11.400;2023-02-19T12:00:22;1.50;;;1.40;;
14306;SDS011;7237;49.500;11.400;2023-02-19T12:05:39;2.10;;;1.57;;
14306;SDS011;7237;49.500;11.400;2023-02-19T12:08:26;1.50;;;1.40;;
14306;SDS011;7237;49.500;11.400;2023-02-19T12:10:58;1.60;;;1.50;;
14306;SDS011;7237;49.500;11.400;2023-02-19T12:13:30;2.57;;;1.83;;
14306;SDS011;7237;49.500;11.400;2023-02-19T12:16:04;2.07;;;1.90;;
14306;SDS011;7237;49.500;11.400;2023-02-19T12:21:20;2.50;;;1.57;;
14306;SDS011;7237;49.500;11.400;2023-02-19T12:23:51;4.03;;;2.00;;
14306;SDS011;7237;49.500;11.400;2023-02-19T12:26:21;3.53;;;2.00;;
14306;SDS011;7237;49.500;11.400;2023-02-19T12:28:58;2.47;;;2.17;;
14306;SDS011;7237;49.500;11.400;2023-02-19T12:31:39;2.03;;;1.80;;
14306;SDS011;7237;49.500;11.400;2023-02-19T12:34:13;3.20;;;1.70;;
14306;SDS011;7237;49.500;11.400;2023-02-19T12:36:42;4.27;;;2.40;;
14306;SDS011;7237;49.500;11.400;2023-02-19T12:39:15;2.30;;;2.10;;
14306;SDS011;7237;49.500;11.400;2023-02-19T12:41:45;2.70;;;2.00;;
14306;SDS011;7237;49.500;11.400;2023-02-19T12:44:16;2.17;;;1.93;;
14306;SDS011;7237;49.500;11.400;2023-02-19T12:46:47;2.87;;;1.67;;
14306;SDS011;7237;49.500;11.400;2023-02-19T12:49:16;3.80;;;2.07;;
14306;SDS011;7237;49.500;11.400;2023-02-19T12:51:45;1.90;;;1.80;;
14306;SDS011;7237;49.500;11.400;2023-02-19T12:54:15;5.33;;;2.00;;
14306;SDS011;7237;49.500;11.400;2023-02-19T12:56:45;5.43;;;2.63;;
14306;SDS011;7237;49.500;11.400;2023-02-19T12:59:14;2.50;;;2.07;;
14306;SDS011;7237;49.500;11.400;2023-02-19T13:01:44;4.80;;;2.73;;
14306;SDS011;7237;49.500;11.400;2023-02-19T13:04:16;2.53;;;2.20;;
14306;SDS011;7237;49.500;11.400;2023-02-19T13:06:45;3.63;;;2.23;;
14306;SDS011;7237;49.500;11.400;2023-02-19T13:09:17;3.77;;;2.40;;
14306;SDS011;7237;49.500;11.400;2023-02-19T13:11:47;2.20;;;1.77;;
14306;SDS011;7237;49.500;11.400;2023-02-19T13:14:16;4.37;;;2.20;;
14306;SDS011;7237;49.500;11.400;2023-02-19T13:16:47;4.38;;;3.42;;
14306;SDS011;7237;49.500;11.400;2023-02-19T13:19:17;4.53;;;2.50;;
14306;SDS011;7237;49.500;11.400;2023-02-19T13:21:45;3.27;;;2.90;;
14306;SDS011;7237;49.500;11.400;2023-02-19T13:24:32;3.17;;;2.10;;
14306;SDS011;7237;49.500;11.400;2023-02-19T13:27:05;3.47;;;2.40;;
14306;SDS011;7237;49.500;11.400;2023-02-19T13:29:39;3.83;;;2.40;;
14306;SDS011;7237;49.500;11.400;2023-02-19T13:32:12;2.40;;;2.13;;
14306;SDS011;7237;49.500;11.400;2023-02-19T13:34:50;2.27;;;2.07;;
14306;SDS011;7237;49.500;11.400;2023-02-19T13:37:20;3.43;;;2.33;;
14306;SDS011;7237;49.500;11.400;2023-02-19T13:39:48;3.13;;;2.53;;
14306;SDS011;7237;49.500;11.400;2023-02-19T13:42:22;1.80;;;1.50;;
14306;SDS011;7237;49.500;11.400;2023-02-19T13:44:49;1.67;;;1.57;;
14306;SDS011;7237;49.500;11.400;2023-02-19T13:50:05;2.50;;;1.60;;
14306;SDS011;7237;49.500;11.400;2023-02-19T13:52:39;2.00;;;1.90;;
14306;SDS011;7237;49.500;11.400;2023-02-19T13:57:52;1.83;;;1.53;;
14306;SDS011;7237;49.500;11.400;2023-02-19T14:03:26;1.77;;;1.50;;
14306;SDS011;7237;49.500;11.400;2023-02-19T14:05:58;2.23;;;1.50;;
14306;SDS011;7237;49.500;11.400;2023-02-19T14:08:44;2.30;;;1.50;;
14306;SDS011;7237;49.500;11.400;2023-02-19T14:11:12;2.70;;;1.57;;
14306;SDS011;7237;49.500;11.400;2023-02-19T14:24:46;2.60;;;1.53;;
14306;SDS011;7237;49.500;11.400;2023-02-19T14:27:13;2.50;;;1.77;;
14306;SDS011;7237;49.500;11.400;2023-02-19T14:29:41;2.80;;;1.90;;
14306;SDS011;7237;49.500;11.400;2023-02-19T14:32:09;2.23;;;2.03;;
14306;SDS011;7237;49.500;11.400;2023-02-19T14:34:38;3.17;;;2.87;;
14306;SDS011;7237;49.500;11.400;2023-02-19T14:37:05;2.57;;;2.10;;
14306;SDS011;7237;49.500;11.400;2023-02-19T14:39:37;3.93;;;2.60;;
14306;SDS011;7237;49.500;11.400;2023-02-19T14:42:07;2.07;;;1.50;;
14306;SDS011;7237;49.500;11.400;2023-02-19T14:44:39;2.30;;;1.50;;
14306;SDS011;7237;49.500;11.400;2023-02-19T14:47:12;1.63;;;1.50;;
14306;SDS011;7237;49.500;11.400;2023-02-19T14:49:41;1.43;;;1.33;;
14306;SDS011;7237;49.500;11.400;2023-02-19T14:52:10;1.70;;;1.30;;
14306;SDS011;7237;49.500;11.400;2023-02-19T14:54:41;3.30;;;1.30;;
14306;SDS011;7237;49.500;11.400;2023-02-19T14:57:12;1.33;;;1.20;;
14306;SDS011;7237;49.500;11.400;2023-02-19T14:59:50;2.40;;;1.27;;
14306;SDS011;7237;49.500;11.400;2023-02-19T15:02:17;1.40;;;1.30;;
14306;SDS011;7237;49.500;11.400;2023-02-19T15:04:45;1.93;;;1.70;;
14306;SDS011;7237;49.500;11.400;2023-02-19T15:07:14;1.90;;;1.60;;
14306;SDS011;7237;49.500;11.400;2023-02-19T15:09:43;2.77;;;2.40;;
14306;SDS011;7237;49.500;11.400;2023-02-19T15:12:17;3.73;;;2.33;;
14306;SDS011;7237;49.500;11.400;2023-02-19T15:14:45;1.57;;;1.40;;
14306;SDS011;7237;49.500;11.400;2023-02-19T15:17:14;1.93;;;1.63;;
14306;SDS011;7237;49.500;11.400;2023-02-19T15:19:43;1.97;;;1.50;;
14306;SDS011;7237;49.500;11.400;2023-02-19T15:22:11;1.53;;;1.40;;
14306;SDS011;7237;49.500;11.400;2023-02-19T15:24:42;1.93;;;1.70;;
14306;SDS011;7237;49.500;11.400;2023-02-19T15:27:10;3.93;;;2.00;;
14306;SDS011;7237;49.500;11.400;2023-02-19T15:29:44;2.40;;;1.53;;